createdAt,value
2024-01-24T00:00:25.531Z,101616.75
2024-01-24T00:02:28.269Z,101629.84
2024-01-24T00:04:31.059Z,101625.38
2024-01-24T00:06:33.896Z,101635.56
2024-01-24T00:08:36.630Z,101634.84
2024-01-24T00:10:39.382Z,101633.91
2024-01-24T00:12:42.127Z,101640.94
2024-01-24T00:14:44.876Z,101637.28
2024-01-24T00:16:47.598Z,101649.25
2024-01-24T00:18:50.482Z,101646.69
2024-01-24T00:20:55.315Z,101647.38
2024-01-24T00:22:58.139Z,101646.50
2024-01-24T00:25:00.863Z,101644.94
2024-01-24T00:27:03.680Z,101653.69
2024-01-24T00:29:06.414Z,101643.91
2024-01-24T00:31:09.546Z,101636.72
2024-01-24T00:33:12.403Z,101639.66
2024-01-24T00:35:15.299Z,101639.28
2024-01-24T00:37:18.104Z,101633.44
2024-01-24T00:39:20.856Z,101628.31
2024-01-24T00:41:23.693Z,101618.91
2024-01-24T00:43:27.216Z,101621.50
2024-01-24T00:45:30.044Z,101623.16
2024-01-24T00:47:32.996Z,101624.81
2024-01-24T00:49:35.833Z,101622.16
2024-01-24T00:51:38.902Z,101628.19
2024-01-24T00:53:41.699Z,101633.91
2024-01-24T00:55:47.163Z,101617.09
2024-01-24T00:57:50.062Z,101625.25
2024-01-24T00:59:52.825Z,101623.13
2024-01-24T01:01:55.622Z,101612.00
2024-01-24T01:03:58.484Z,101610.44
2024-01-24T01:06:01.270Z,101613.16
2024-01-24T01:08:04.317Z,101611.16
2024-01-24T01:10:09.608Z,101611.28
2024-01-24T01:12:12.408Z,101598.19
2024-01-24T01:14:15.172Z,101594.00
2024-01-24T01:16:17.908Z,101593.22
2024-01-24T01:18:20.662Z,101589.88
2024-01-24T01:20:23.394Z,101593.16
2024-01-24T01:22:26.190Z,101571.09
2024-01-24T01:24:28.961Z,101574.94
2024-01-24T01:26:34.020Z,101574.06
2024-01-24T01:28:36.770Z,101570.59
2024-01-24T01:30:40.154Z,101573.19
2024-01-24T01:32:43.268Z,101573.91
2024-01-24T01:34:46.130Z,101581.75
2024-01-24T01:36:48.959Z,101580.06
2024-01-24T01:38:51.780Z,101574.81
2024-01-24T01:40:54.541Z,101564.22
2024-01-24T01:42:57.846Z,101553.19
2024-01-24T01:45:00.617Z,101536.41
2024-01-24T01:47:03.907Z,101529.84
2024-01-24T01:49:08.334Z,101533.28
2024-01-24T01:51:12.601Z,101543.47
2024-01-24T01:53:17.141Z,101539.00
2024-01-24T01:55:20.078Z,101535.75
2024-01-24T01:57:22.958Z,101531.56
2024-01-24T01:59:27.069Z,101528.28
2024-01-24T02:01:30.039Z,101526.41
2024-01-24T02:03:33.221Z,101530.84
2024-01-24T02:05:38.902Z,101529.03
2024-01-24T02:07:45.308Z,101532.13
2024-01-24T02:09:48.300Z,101528.84
2024-01-24T02:11:51.158Z,101531.56
2024-01-24T02:14:00.678Z,101535.59
2024-01-24T02:16:04.776Z,101543.78
2024-01-24T02:18:07.675Z,101535.38
2024-01-24T02:20:13.575Z,101526.03
2024-01-24T02:22:16.351Z,101519.28
2024-01-24T02:24:19.174Z,101516.81
2024-01-24T02:26:21.961Z,101515.88
2024-01-24T02:28:24.984Z,101508.75
2024-01-24T02:30:27.784Z,101500.44
2024-01-24T02:32:30.578Z,101506.94
2024-01-24T02:34:33.542Z,101506.16
2024-01-24T02:36:36.501Z,101499.84
2024-01-24T02:38:39.245Z,101493.34
2024-01-24T02:40:42.145Z,101491.22
2024-01-24T02:42:44.936Z,101496.41
2024-01-24T02:44:47.831Z,101501.66
2024-01-24T02:46:50.588Z,101498.00
2024-01-24T02:48:53.474Z,101496.47
2024-01-24T02:50:56.310Z,101495.75
2024-01-24T02:52:59.165Z,101502.72
2024-01-24T02:55:02.078Z,101494.50
2024-01-24T02:57:05.997Z,101492.59
2024-01-24T02:59:08.789Z,101494.91
2024-01-24T03:01:11.706Z,101493.72
2024-01-24T03:03:14.549Z,101487.56
2024-01-24T03:05:17.359Z,101477.50
2024-01-24T03:07:20.131Z,101479.22
2024-01-24T03:09:23.468Z,101470.38
2024-01-24T03:11:26.519Z,101469.59
2024-01-24T03:13:29.326Z,101462.63
2024-01-24T03:15:32.182Z,101453.56
2024-01-24T03:17:35.258Z,101455.34
2024-01-24T03:19:38.114Z,101447.78
2024-01-24T03:21:41.763Z,101446.22
2024-01-24T03:23:45.172Z,101437.13
2024-01-24T03:25:47.923Z,101427.44
2024-01-24T03:27:50.718Z,101428.63
2024-01-24T03:29:53.610Z,101426.22
2024-01-24T03:31:56.336Z,101427.16
2024-01-24T03:33:59.207Z,101408.69
2024-01-24T03:36:02.009Z,101397.38
2024-01-24T03:38:05.566Z,101390.03
2024-01-24T03:40:08.937Z,101395.34
2024-01-24T03:42:11.687Z,101394.34
2024-01-24T03:44:14.471Z,101401.25
2024-01-24T03:46:21.384Z,101405.69
2024-01-24T03:48:24.387Z,101410.22
2024-01-24T03:50:27.176Z,101423.31
2024-01-24T03:52:30.293Z,101413.88
2024-01-24T03:54:33.099Z,101405.34
2024-01-24T03:56:35.875Z,101407.19
2024-01-24T03:58:38.807Z,101413.47
2024-01-24T04:00:41.629Z,101408.19
2024-01-24T04:02:44.446Z,101408.97
2024-01-24T04:04:47.217Z,101408.88
2024-01-24T04:06:50.208Z,101410.75
2024-01-24T04:08:53.060Z,101410.84
2024-01-24T04:10:55.974Z,101407.44
2024-01-24T04:12:58.750Z,101411.00
2024-01-24T04:15:01.622Z,101401.94
2024-01-24T04:17:04.373Z,101401.19
2024-01-24T04:19:07.928Z,101393.28
2024-01-24T04:21:10.700Z,101384.75
2024-01-24T04:23:13.493Z,101383.03
2024-01-24T04:25:16.403Z,101381.47
2024-01-24T04:27:19.457Z,101384.94
2024-01-24T04:29:22.209Z,101390.09
2024-01-24T04:31:24.949Z,101382.34
2024-01-24T04:33:27.769Z,101382.44
2024-01-24T04:35:30.664Z,101378.25
2024-01-24T04:37:33.407Z,101373.88
2024-01-24T04:39:36.165Z,101365.50
2024-01-24T04:41:41.294Z,101366.53
2024-01-24T04:43:44.288Z,101359.72
2024-01-24T04:45:47.163Z,101360.72
2024-01-24T04:47:49.972Z,101364.16
2024-01-24T04:49:52.843Z,101368.63
2024-01-24T04:51:55.696Z,101371.06
2024-01-24T04:53:58.462Z,101366.69
2024-01-24T04:56:01.237Z,101363.19
2024-01-24T04:58:04.500Z,101361.59
2024-01-24T05:00:09.274Z,101363.50
2024-01-24T05:02:12.018Z,101366.31
2024-01-24T05:04:14.857Z,101362.00
2024-01-24T05:06:17.745Z,101360.47
2024-01-24T05:08:20.524Z,101348.44
2024-01-24T05:10:23.277Z,101346.47
2024-01-24T05:12:26.073Z,101343.09
2024-01-24T05:14:29.515Z,101321.63
2024-01-24T05:16:32.284Z,101324.44
2024-01-24T05:18:35.143Z,101321.94
2024-01-24T05:20:38.411Z,101323.66
2024-01-24T05:22:41.184Z,101328.06
2024-01-24T05:24:47.429Z,101321.09
2024-01-24T05:26:50.197Z,101318.50
2024-01-24T05:28:52.969Z,101323.91
2024-01-24T05:30:55.817Z,101324.88
2024-01-24T05:32:59.234Z,101327.59
2024-01-24T05:35:02.225Z,101332.03
2024-01-24T05:37:05.112Z,101326.81
2024-01-24T05:39:08.818Z,101325.84
2024-01-24T05:41:11.780Z,101322.50
2024-01-24T05:43:14.559Z,101331.28
2024-01-24T05:45:17.315Z,101328.88
2024-01-24T05:47:20.060Z,101336.63
2024-01-24T05:49:22.907Z,101325.44
2024-01-24T05:51:25.764Z,101321.94
2024-01-24T05:53:28.863Z,101315.16
2024-01-24T05:55:31.672Z,101315.25
2024-01-24T05:57:34.429Z,101322.28
2024-01-24T05:59:37.328Z,101324.03
2024-01-24T06:01:40.273Z,101334.47
2024-01-24T06:03:43.208Z,101331.75
2024-01-24T06:05:46.240Z,101330.94
2024-01-24T06:07:50.933Z,101331.81
2024-01-24T06:09:53.828Z,101335.38
2024-01-24T06:11:56.662Z,101320.72
2024-01-24T06:13:59.509Z,101318.19
2024-01-24T06:16:02.999Z,101316.50
2024-01-24T06:18:05.973Z,101306.09
2024-01-24T06:20:10.420Z,101301.97
2024-01-24T06:22:13.210Z,101302.91
2024-01-24T06:24:16.285Z,101305.63
2024-01-24T06:26:19.109Z,101301.38
2024-01-24T06:28:21.850Z,101293.69
2024-01-24T06:30:26.745Z,101273.75
2024-01-24T06:32:30.929Z,101257.34
2024-01-24T06:34:33.763Z,101246.97
2024-01-24T06:36:36.707Z,101239.22
2024-01-24T06:38:39.472Z,101257.53
2024-01-24T06:40:42.366Z,101239.34
2024-01-24T06:42:45.128Z,101250.66
2024-01-24T06:44:47.868Z,101242.03
2024-01-24T06:46:50.645Z,101230.75
2024-01-24T06:48:53.777Z,101225.53
2024-01-24T06:50:56.676Z,101218.66
2024-01-24T06:52:59.822Z,101228.22
2024-01-24T06:55:03.077Z,101215.19
2024-01-24T06:57:05.820Z,101216.97
2024-01-24T06:59:08.599Z,101214.38
2024-01-24T07:01:14.793Z,101217.00
2024-01-24T07:03:20.368Z,101211.78
2024-01-24T07:05:24.996Z,101205.69
2024-01-24T07:07:27.804Z,101202.25
2024-01-24T07:09:30.710Z,101199.66
2024-01-24T07:11:33.605Z,101204.88
2024-01-24T07:13:37.829Z,101206.63
2024-01-24T07:15:41.000Z,101196.19
2024-01-24T07:17:44.159Z,101195.31
2024-01-24T07:19:48.367Z,101199.69
2024-01-24T07:21:52.296Z,101207.50
2024-01-24T07:23:55.602Z,101198.81
2024-01-24T07:25:58.704Z,101199.69
2024-01-24T07:28:01.479Z,101193.63
2024-01-24T07:30:05.727Z,101191.91
2024-01-24T07:32:11.166Z,101188.38
2024-01-24T07:34:14.010Z,101184.94
2024-01-24T07:36:17.056Z,101178.84
2024-01-24T07:38:20.054Z,101182.31
2024-01-24T07:40:22.789Z,101181.47
2024-01-24T07:42:25.535Z,101177.09
2024-01-24T07:44:28.319Z,101176.22
2024-01-24T07:46:33.931Z,101179.72
2024-01-24T07:48:37.541Z,101175.38
2024-01-24T07:50:40.518Z,101177.09
2024-01-24T07:52:44.754Z,101166.69
2024-01-24T07:54:47.670Z,101173.66
2024-01-24T07:56:50.473Z,101179.72
2024-01-24T07:58:54.414Z,101171.91
2024-01-24T08:00:57.392Z,101165.78
2024-01-24T08:03:00.406Z,101166.69
2024-01-24T08:05:03.882Z,101170.16
2024-01-24T08:07:07.010Z,101175.38
2024-01-24T08:09:11.240Z,101166.66
2024-01-24T08:11:16.442Z,101163.19
2024-01-24T08:13:20.233Z,101172.78
2024-01-24T08:15:23.030Z,101173.66
2024-01-24T08:17:26.597Z,101169.31
2024-01-24T08:19:29.646Z,101166.69
2024-01-24T08:21:32.890Z,101157.13
2024-01-24T08:23:42.878Z,101161.47
2024-01-24T08:25:51.946Z,101162.34
2024-01-24T08:27:54.885Z,101159.75
2024-01-24T08:29:58.369Z,101154.50
2024-01-24T08:32:01.345Z,101151.03
2024-01-24T08:34:04.309Z,101165.78
2024-01-24T08:36:07.140Z,101157.97
2024-01-24T08:38:10.974Z,101145.81
2024-01-24T08:40:13.783Z,101142.31
2024-01-24T08:42:16.649Z,101137.13
2024-01-24T08:44:19.564Z,101142.34
2024-01-24T08:46:22.360Z,101142.31
2024-01-24T08:48:26.292Z,101144.06
2024-01-24T08:50:29.197Z,101133.63
2024-01-24T08:52:36.165Z,101131.00
2024-01-24T08:54:39.567Z,101121.47
2024-01-24T08:56:42.614Z,101106.72
2024-01-24T08:58:45.781Z,101104.94
2024-01-24T09:00:48.731Z,101098.00
2024-01-24T09:02:51.832Z,101101.47
2024-01-24T09:04:56.366Z,101104.06
2024-01-24T09:06:59.301Z,101092.78
2024-01-24T09:09:02.258Z,101092.75
2024-01-24T09:11:05.591Z,101089.31
2024-01-24T09:13:08.556Z,101076.28
2024-01-24T09:15:11.439Z,101075.41
2024-01-24T09:17:14.981Z,101078.88
2024-01-24T09:19:18.192Z,101081.50
2024-01-24T09:21:21.129Z,101071.91
2024-01-24T09:23:24.006Z,101079.72
2024-01-24T09:25:26.936Z,101064.97
2024-01-24T09:27:30.241Z,101062.31
2024-01-24T09:29:33.048Z,101073.59
2024-01-24T09:31:35.885Z,101062.31
2024-01-24T09:33:40.191Z,101043.16
2024-01-24T09:35:45.316Z,101037.94
2024-01-24T09:37:48.166Z,101062.25
2024-01-24T09:39:52.282Z,101074.38
2024-01-24T09:41:57.089Z,101065.72
2024-01-24T09:44:05.106Z,101056.13
2024-01-24T09:46:13.589Z,101037.91
2024-01-24T09:48:18.156Z,101037.03
2024-01-24T09:50:23.289Z,101030.88
2024-01-24T09:52:28.064Z,101016.97
2024-01-24T09:54:32.739Z,101030.88
2024-01-24T09:56:39.753Z,101018.66
2024-01-24T09:58:42.584Z,101014.28
2024-01-24T10:00:45.772Z,101000.38
2024-01-24T10:02:48.982Z,100981.25
2024-01-24T10:04:53.479Z,100978.53
2024-01-24T10:06:56.986Z,100977.59
2024-01-24T10:09:00.552Z,100983.63
2024-01-24T10:11:03.436Z,100979.38
2024-01-24T10:13:07.833Z,100965.53
2024-01-24T10:15:11.475Z,100949.00
2024-01-24T10:17:14.961Z,100941.16
2024-01-24T10:19:22.568Z,100939.38
2024-01-24T10:21:27.236Z,100921.97
2024-01-24T10:23:30.710Z,100928.94
2024-01-24T10:25:33.543Z,100920.16
2024-01-24T10:27:38.731Z,100900.16
2024-01-24T10:29:44.196Z,100899.22
2024-01-24T10:31:47.451Z,100913.13
2024-01-24T10:33:55.273Z,100911.38
2024-01-24T10:36:03.038Z,100909.63
2024-01-24T10:38:13.828Z,100914.06
2024-01-24T10:40:17.721Z,100882.81
2024-01-24T10:42:23.825Z,100876.63
2024-01-24T10:44:26.856Z,100888.75
2024-01-24T10:46:30.258Z,100890.44
2024-01-24T10:48:36.410Z,100887.97
2024-01-24T10:50:51.649Z,100882.72
2024-01-24T10:53:00.202Z,100875.69
2024-01-24T10:55:14.761Z,100871.28
2024-01-24T10:57:23.495Z,100846.94
2024-01-24T10:59:36.597Z,100847.72
2024-01-24T11:01:39.463Z,100846.78
2024-01-24T11:03:43.912Z,100842.53
2024-01-24T11:05:57.878Z,100840.72
2024-01-24T11:08:23.682Z,100805.91
2024-01-24T11:10:35.393Z,100791.91
2024-01-24T11:12:38.334Z,100791.84
2024-01-24T11:14:46.683Z,100776.16
2024-01-24T11:16:49.506Z,100780.41
2024-01-24T11:18:53.063Z,100788.22
2024-01-24T11:21:01.094Z,100791.47
2024-01-24T11:23:36.486Z,100791.38
2024-01-24T11:25:39.554Z,100777.53
2024-01-24T11:27:44.893Z,100774.88
2024-01-24T11:29:47.780Z,100754.97
2024-01-24T11:31:50.694Z,100727.84
2024-01-24T11:34:15.554Z,100716.47
2024-01-24T11:36:18.628Z,100689.31
2024-01-24T11:38:26.675Z,100697.81
2024-01-24T11:40:37.474Z,100703.13
2024-01-24T11:42:44.585Z,100704.66
2024-01-24T11:44:48.484Z,100700.41
2024-01-24T11:46:53.113Z,100702.16
2024-01-24T11:49:05.557Z,100723.75
2024-01-24T11:51:11.858Z,100725.44
2024-01-24T11:53:14.611Z,100713.28
2024-01-24T11:55:17.416Z,100730.59
2024-01-24T11:57:20.467Z,100724.59
2024-01-24T11:59:23.315Z,100713.25
2024-01-24T12:01:26.323Z,100708.03
2024-01-24T12:03:29.235Z,100707.25
2024-01-24T12:05:32.058Z,100720.94
2024-01-24T12:07:35.070Z,100722.00
2024-01-24T12:09:37.952Z,100707.09
2024-01-24T12:11:40.732Z,100714.16
2024-01-24T12:13:43.743Z,100710.56
2024-01-24T12:15:47.398Z,100709.81
2024-01-24T12:17:50.481Z,100711.47
2024-01-24T12:19:54.423Z,100707.25
2024-01-24T12:21:59.529Z,100699.34
2024-01-24T12:24:02.751Z,100700.19
2024-01-24T12:26:05.864Z,100705.59
2024-01-24T12:28:09.382Z,100714.25
2024-01-24T12:30:14.308Z,100716.00
2024-01-24T12:32:18.610Z,100716.72
2024-01-24T12:34:22.690Z,100718.34
2024-01-24T12:36:26.100Z,100705.41
2024-01-24T12:38:29.038Z,100692.34
2024-01-24T12:40:33.027Z,100685.38
2024-01-24T12:42:36.476Z,100679.31
2024-01-24T12:44:39.535Z,100680.13
2024-01-24T12:46:42.400Z,100677.53
2024-01-24T12:48:48.643Z,100670.50
2024-01-24T12:50:51.838Z,100670.41
2024-01-24T12:52:54.940Z,100668.75
2024-01-24T12:54:57.796Z,100665.19
2024-01-24T12:57:00.644Z,100657.19
2024-01-24T12:59:03.598Z,100659.63
2024-01-24T13:01:06.551Z,100654.41
2024-01-24T13:03:09.341Z,100643.09
2024-01-24T13:05:12.415Z,100659.53
2024-01-24T13:07:15.530Z,100664.78
2024-01-24T13:09:18.849Z,100683.75
2024-01-24T13:11:21.727Z,100676.97
2024-01-24T13:13:24.663Z,100696.06
2024-01-24T13:15:27.519Z,100701.50
2024-01-24T13:17:30.366Z,100698.97
2024-01-24T13:19:33.373Z,100686.19
2024-01-24T13:21:40.431Z,100671.28
2024-01-24T13:23:45.525Z,100648.44
2024-01-24T13:25:48.433Z,100650.19
2024-01-24T13:27:51.312Z,100645.63
2024-01-24T13:29:54.565Z,100636.03
2024-01-24T13:31:57.382Z,100649.00
2024-01-24T13:34:00.319Z,100638.56
2024-01-24T13:36:03.263Z,100617.78
2024-01-24T13:38:06.043Z,100622.03
2024-01-24T13:40:13.149Z,100603.75
2024-01-24T13:42:16.693Z,100586.19
2024-01-24T13:44:19.520Z,100599.09
2024-01-24T13:46:22.369Z,100592.84
2024-01-24T13:48:25.345Z,100608.44
2024-01-24T13:50:28.219Z,100602.03
2024-01-24T13:52:31.244Z,100604.53
2024-01-24T13:54:34.044Z,100592.97
2024-01-24T13:56:36.964Z,100599.72
2024-01-24T13:58:39.816Z,100597.88
2024-01-24T14:00:43.450Z,100591.47
2024-01-24T14:02:46.893Z,100580.53
2024-01-24T14:04:50.924Z,100598.72
2024-01-24T14:06:54.483Z,100605.56
2024-01-24T14:08:57.603Z,100595.25
2024-01-24T14:11:00.744Z,100580.50
2024-01-24T14:13:04.196Z,100578.84
2024-01-24T14:15:15.412Z,100569.22
2024-01-24T14:17:26.590Z,100570.94
2024-01-24T14:19:29.529Z,100569.09
2024-01-24T14:21:33.702Z,100573.63
2024-01-24T14:23:36.545Z,100577.19
2024-01-24T14:25:39.503Z,100565.91
2024-01-24T14:27:44.221Z,100554.69
2024-01-24T14:29:47.080Z,100562.56
2024-01-24T14:31:49.800Z,100562.56
2024-01-24T14:33:52.798Z,100578.25
2024-01-24T14:35:55.616Z,100582.50
2024-01-24T14:37:59.298Z,100591.22
2024-01-24T14:40:02.352Z,100562.44
2024-01-24T14:42:08.545Z,100560.13
2024-01-24T14:44:11.509Z,100562.69
2024-01-24T14:46:14.265Z,100561.00
2024-01-24T14:48:17.082Z,100554.91
2024-01-24T14:50:19.895Z,100547.81
2024-01-24T14:52:22.709Z,100541.91
2024-01-24T14:54:25.666Z,100549.66
2024-01-24T14:56:28.441Z,100536.56
2024-01-24T14:58:31.327Z,100532.25
2024-01-24T15:00:34.201Z,100529.59
2024-01-24T15:02:40.659Z,100532.34
2024-01-24T15:04:43.590Z,100531.72
2024-01-24T15:06:46.502Z,100533.56
2024-01-24T15:08:49.277Z,100531.00
2024-01-24T15:10:52.174Z,100528.59
2024-01-24T15:12:55.145Z,100529.53
2024-01-24T15:14:57.881Z,100527.88
2024-01-24T15:17:00.785Z,100515.78
2024-01-24T15:19:04.522Z,100525.38
2024-01-24T15:21:11.507Z,100514.91
2024-01-24T15:23:16.355Z,100508.09
2024-01-24T15:25:19.902Z,100509.84
2024-01-24T15:27:25.091Z,100510.19
2024-01-24T15:29:29.193Z,100514.69
2024-01-24T15:31:32.281Z,100521.91
2024-01-24T15:33:35.586Z,100518.53
2024-01-24T15:35:38.766Z,100512.53
2024-01-24T15:37:42.850Z,100510.81
2024-01-24T15:39:45.834Z,100503.94
2024-01-24T15:41:48.690Z,100500.25
2024-01-24T15:43:51.456Z,100491.13
2024-01-24T15:45:54.748Z,100495.31
2024-01-24T15:47:57.747Z,100491.56
2024-01-24T15:50:00.991Z,100490.44
2024-01-24T15:52:04.082Z,100494.66
2024-01-24T15:54:06.923Z,100502.53
2024-01-24T15:56:10.212Z,100504.00
2024-01-24T15:58:13.018Z,100511.00
2024-01-24T16:00:16.770Z,100512.69
2024-01-24T16:02:19.585Z,100513.75
2024-01-24T16:04:22.795Z,100516.19
2024-01-24T16:06:26.116Z,100495.25
2024-01-24T16:08:29.202Z,100490.19
2024-01-24T16:10:32.284Z,100493.88
2024-01-24T16:12:35.092Z,100500.13
2024-01-24T16:14:37.903Z,100520.19
2024-01-24T16:16:40.641Z,100507.22
2024-01-24T16:18:44.550Z,100503.81
2024-01-24T16:20:47.360Z,100522.91
2024-01-24T16:22:55.512Z,100515.34
2024-01-24T16:24:59.835Z,100534.41
2024-01-24T16:27:02.579Z,100547.66
2024-01-24T16:29:05.341Z,100555.59
2024-01-24T16:31:08.153Z,100555.88
2024-01-24T16:33:11.397Z,100555.69
2024-01-24T16:35:15.217Z,100539.88
2024-01-24T16:37:18.090Z,100543.22
2024-01-24T16:39:20.885Z,100540.47
2024-01-24T16:41:23.655Z,100545.88
2024-01-24T16:43:37.954Z,100542.28
2024-01-24T16:45:40.965Z,100524.78
2024-01-24T16:47:46.138Z,100556.00
2024-01-24T16:49:49.507Z,100544.75
2024-01-24T16:51:52.494Z,100544.75
2024-01-24T16:53:55.834Z,100553.38
2024-01-24T16:55:58.712Z,100580.31
2024-01-24T16:58:01.502Z,100551.47
2024-01-24T17:00:05.585Z,100554.09
2024-01-24T17:02:08.356Z,100555.03
2024-01-24T17:04:11.239Z,100538.56
2024-01-24T17:06:14.084Z,100549.81
2024-01-24T17:08:16.881Z,100568.78
2024-01-24T17:10:19.632Z,100571.50
2024-01-24T17:12:23.136Z,100576.69
2024-01-24T17:14:25.984Z,100564.50
2024-01-24T17:16:28.736Z,100559.34
2024-01-24T17:18:31.873Z,100558.38
2024-01-24T17:20:34.753Z,100556.56
2024-01-24T17:22:37.488Z,100550.53
2024-01-24T17:24:40.254Z,100557.44
2024-01-24T17:26:43.023Z,100569.56
2024-01-24T17:28:45.968Z,100557.25
2024-01-24T17:30:49.009Z,100556.34
2024-01-24T17:32:52.047Z,100549.38
2024-01-24T17:34:55.143Z,100555.56
2024-01-24T17:36:57.972Z,100553.84
2024-01-24T17:39:01.009Z,100541.09
2024-01-24T17:41:04.800Z,100542.72
2024-01-24T17:43:07.680Z,100531.94
2024-01-24T17:45:11.113Z,100532.97
2024-01-24T17:47:13.999Z,100536.41
2024-01-24T17:49:17.315Z,100537.88
2024-01-24T17:51:21.480Z,100530.34
2024-01-24T17:53:24.275Z,100532.25
2024-01-24T17:55:29.354Z,100525.38
2024-01-24T17:57:33.410Z,100544.44
2024-01-24T17:59:36.711Z,100541.97
2024-01-24T18:01:40.202Z,100548.16
2024-01-24T18:03:43.634Z,100541.34
2024-01-24T18:05:47.051Z,100544.47
2024-01-24T18:07:50.180Z,100548.03
2024-01-24T18:09:56.496Z,100561.84
2024-01-24T18:11:59.912Z,100568.84
2024-01-24T18:14:03.141Z,100566.28
2024-01-24T18:16:06.676Z,100574.38
2024-01-24T18:18:11.365Z,100578.03
2024-01-24T18:20:14.607Z,100579.34
2024-01-24T18:22:17.601Z,100580.41
2024-01-24T18:24:20.562Z,100593.75
2024-01-24T18:26:23.627Z,100588.75
2024-01-24T18:28:27.173Z,100593.84
2024-01-24T18:30:31.154Z,100586.00
2024-01-24T18:32:35.762Z,100579.22
2024-01-24T18:34:39.710Z,100575.75
2024-01-24T18:36:43.269Z,100587.81
2024-01-24T18:38:47.079Z,100583.53
2024-01-24T18:40:50.907Z,100577.38
2024-01-24T18:42:54.555Z,100595.75
2024-01-24T18:44:58.936Z,100591.53
2024-01-24T18:47:02.409Z,100568.88
2024-01-24T18:49:05.772Z,100565.34
2024-01-24T18:51:10.915Z,100556.56
2024-01-24T18:53:14.543Z,100546.13
2024-01-24T18:55:19.038Z,100552.13
2024-01-24T18:57:28.460Z,100545.50
2024-01-24T18:59:32.779Z,100549.91
2024-01-24T19:01:39.364Z,100564.00
2024-01-24T19:03:43.433Z,100562.22
2024-01-24T19:05:47.972Z,100565.75
2024-01-24T19:07:52.723Z,100566.00
2024-01-24T19:09:59.013Z,100573.00
2024-01-24T19:12:02.668Z,100563.53
2024-01-24T19:14:06.436Z,100559.34
2024-01-24T19:16:10.053Z,100568.00
2024-01-24T19:18:17.306Z,100570.78
2024-01-24T19:20:22.533Z,100565.84
2024-01-24T19:22:26.139Z,100571.22
2024-01-24T19:24:29.687Z,100576.44
2024-01-24T19:26:36.002Z,100576.50
2024-01-24T19:28:40.300Z,100576.72
2024-01-24T19:30:44.046Z,100587.97
2024-01-24T19:32:48.929Z,100584.44
2024-01-24T19:34:54.391Z,100582.00
2024-01-24T19:36:58.263Z,100582.06
2024-01-24T19:39:02.096Z,100588.00
2024-01-24T19:41:06.116Z,100584.69
2024-01-24T19:43:11.727Z,100599.50
2024-01-24T19:45:15.704Z,100602.09
2024-01-24T19:47:21.315Z,100604.72
2024-01-24T19:49:25.903Z,100610.84
2024-01-24T19:51:30.235Z,100612.56
2024-01-24T19:53:34.953Z,100617.84
2024-01-24T19:55:39.383Z,100617.03
2024-01-24T19:57:43.375Z,100617.06
2024-01-24T19:59:48.809Z,100611.78
2024-01-24T20:01:53.392Z,100608.31
2024-01-24T20:03:57.206Z,100613.47
2024-01-24T20:06:04.272Z,100617.81
2024-01-24T20:08:08.424Z,100618.69
2024-01-24T20:10:12.585Z,100625.63
2024-01-24T20:12:18.006Z,100626.53
2024-01-24T20:14:22.773Z,100633.56
2024-01-24T20:16:27.032Z,100630.06
2024-01-24T20:18:31.253Z,100621.50
2024-01-24T20:20:35.540Z,100624.91
2024-01-24T20:22:39.457Z,100617.13
2024-01-24T20:24:44.978Z,100612.81
2024-01-24T20:26:49.877Z,100625.81
2024-01-24T20:28:54.572Z,100621.47
2024-01-24T20:30:58.723Z,100622.44
2024-01-24T20:33:05.193Z,100613.72
2024-01-24T20:35:10.260Z,100601.59
2024-01-24T20:37:14.553Z,100609.38
2024-01-24T20:39:20.056Z,100601.66
2024-01-24T20:41:25.011Z,100606.84
2024-01-24T20:43:29.933Z,100604.28
2024-01-24T20:45:35.681Z,100602.53
2024-01-24T20:47:39.878Z,100590.44
2024-01-24T20:49:44.065Z,100603.34
2024-01-24T20:51:50.438Z,100592.97
2024-01-24T20:53:54.227Z,100602.47
2024-01-24T20:55:58.137Z,100595.56
2024-01-24T20:58:01.804Z,100594.63
2024-01-24T21:00:08.379Z,100598.03
2024-01-24T21:02:12.254Z,100596.28
2024-01-24T21:04:16.405Z,100599.69
2024-01-24T21:06:23.742Z,100603.91
2024-01-24T21:08:27.378Z,100602.09
2024-01-24T21:10:30.767Z,100607.19
2024-01-24T21:12:34.035Z,100601.09
2024-01-24T21:14:37.408Z,100601.91
2024-01-24T21:16:40.610Z,100612.19
2024-01-24T21:18:45.073Z,100605.16
2024-01-24T21:20:48.165Z,100610.19
2024-01-24T21:22:51.168Z,100609.13
2024-01-24T21:24:54.481Z,100603.75
2024-01-24T21:26:57.387Z,100601.91
2024-01-24T21:29:00.194Z,100594.75
2024-01-24T21:31:03.068Z,100597.19
2024-01-24T21:33:05.907Z,100592.72
2024-01-24T21:35:10.440Z,100589.16
2024-01-24T21:37:13.289Z,100597.75
2024-01-24T21:39:16.080Z,100599.34
2024-01-24T21:41:18.821Z,100598.38
2024-01-24T21:43:22.781Z,100598.34
2024-01-24T21:45:25.511Z,100594.78
2024-01-24T21:47:28.574Z,100599.84
2024-01-24T21:49:32.461Z,100607.50
2024-01-24T21:51:35.231Z,100609.09
2024-01-24T21:53:37.962Z,100600.31
2024-01-24T21:55:40.795Z,100599.28
2024-01-24T21:57:50.022Z,100591.22
2024-01-24T21:59:54.088Z,100588.41
2024-01-24T22:01:57.401Z,100583.09
2024-01-24T22:04:00.451Z,100580.22
2024-01-24T22:06:03.407Z,100581.50
2024-01-24T22:08:07.958Z,100581.56
2024-01-24T22:10:10.762Z,100586.56
2024-01-24T22:12:13.909Z,100595.34
2024-01-24T22:14:16.649Z,100596.94
2024-01-24T22:16:19.536Z,100603.13
2024-01-24T22:18:25.273Z,100605.75
2024-01-24T22:20:32.849Z,100604.00
2024-01-24T22:22:36.590Z,100602.91
2024-01-24T22:24:39.551Z,100605.50
2024-01-24T22:26:42.662Z,100594.13
2024-01-24T22:28:45.406Z,100594.16
2024-01-24T22:30:48.977Z,100592.38
2024-01-24T22:32:51.749Z,100597.53
2024-01-24T22:34:54.635Z,100586.91
2024-01-24T22:36:57.439Z,100586.16
2024-01-24T22:39:00.251Z,100593.91
2024-01-24T22:41:02.957Z,100591.25
2024-01-24T22:43:05.728Z,100580.75
2024-01-24T22:45:08.818Z,100595.56
2024-01-24T22:47:11.525Z,100600.66
2024-01-24T22:49:14.595Z,100598.78
2024-01-24T22:51:17.378Z,100599.56
2024-01-24T22:53:20.114Z,100598.53
2024-01-24T22:55:22.993Z,100599.28
2024-01-24T22:57:25.776Z,100597.53
2024-01-24T22:59:28.495Z,100604.41
2024-01-24T23:01:32.087Z,100606.00
2024-01-24T23:03:34.953Z,100603.22
2024-01-24T23:05:37.834Z,100607.50
2024-01-24T23:07:41.754Z,100607.41
2024-01-24T23:09:44.620Z,100615.06
2024-01-24T23:11:47.416Z,100615.06
2024-01-24T23:13:50.126Z,100617.63
2024-01-24T23:15:53.349Z,100618.63
2024-01-24T23:17:56.143Z,100619.91
2024-01-24T23:19:59.088Z,100617.41
2024-01-24T23:22:01.960Z,100620.16
2024-01-24T23:24:05.072Z,100616.81
2024-01-24T23:26:07.814Z,100623.06
2024-01-24T23:28:10.535Z,100617.84
2024-01-24T23:30:13.574Z,100612.75
2024-01-24T23:32:16.765Z,100626.69